createdAt,value
2019-02-21T00:02:24.992Z,15.17
2019-02-21T00:06:29.960Z,16.53
2019-02-21T00:10:34.887Z,13.60
2019-02-21T00:14:39.831Z,13.63
2019-02-21T00:18:44.719Z,15.80
2019-02-21T00:22:49.653Z,15.47
2019-02-21T00:26:54.571Z,15.80
2019-02-21T00:30:59.790Z,14.53
2019-02-21T00:35:04.770Z,17.90
2019-02-21T00:39:09.761Z,15.83
2019-02-21T00:43:14.616Z,14.53
2019-02-21T00:47:19.839Z,15.07
2019-02-21T00:51:24.753Z,14.23
2019-02-21T00:55:29.766Z,15.97
2019-02-21T00:59:34.675Z,14.77
2019-02-21T01:03:39.633Z,14.13
2019-02-21T01:07:44.491Z,12.47
2019-02-21T01:11:49.378Z,15.33
2019-02-21T01:15:54.274Z,11.40
2019-02-21T01:19:59.369Z,13.87
2019-02-21T01:24:05.125Z,15.33
2019-02-21T01:28:10.727Z,14.47
2019-02-21T01:32:15.745Z,13.27
2019-02-21T01:36:20.715Z,14.67
2019-02-21T01:40:25.652Z,14.50
2019-02-21T01:44:30.575Z,13.53
2019-02-21T01:48:35.467Z,14.07
2019-02-21T01:52:40.355Z,13.87
2019-02-21T01:56:45.246Z,12.60
2019-02-21T02:00:50.146Z,15.37
2019-02-21T02:04:55.042Z,15.23
2019-02-21T02:08:59.970Z,14.87
2019-02-21T02:13:05.226Z,14.87
2019-02-21T02:17:10.266Z,15.53
2019-02-21T02:21:15.199Z,13.97
2019-02-21T02:25:20.381Z,14.60
2019-02-21T02:29:25.282Z,16.10
2019-02-21T02:33:30.177Z,16.20
2019-02-21T02:37:36.190Z,17.97
2019-02-21T02:41:41.080Z,13.80
2019-02-21T02:45:45.973Z,14.07
2019-02-21T02:49:51.041Z,15.67
2019-02-21T02:53:56.376Z,14.87
2019-02-21T02:58:01.636Z,14.73
2019-02-21T03:02:06.666Z,15.20
2019-02-21T03:06:11.653Z,14.00
2019-02-21T03:10:18.234Z,14.33
2019-02-21T03:14:23.090Z,15.30
2019-02-21T03:18:27.973Z,17.47
2019-02-21T03:22:32.951Z,14.27
2019-02-21T03:26:37.862Z,13.77
2019-02-21T03:30:42.811Z,15.50
2019-02-21T03:34:47.716Z,14.60
2019-02-21T03:38:52.691Z,14.60
2019-02-21T03:42:57.690Z,16.60
2019-02-21T03:47:02.759Z,15.83
2019-02-21T03:51:07.765Z,15.87
2019-02-21T03:55:12.818Z,13.97
2019-02-21T03:59:17.910Z,14.33
2019-02-21T04:03:22.884Z,15.53
2019-02-21T04:07:27.724Z,15.27
2019-02-21T04:11:32.959Z,14.77
2019-02-21T04:15:37.913Z,13.30
2019-02-21T04:19:42.864Z,14.97
2019-02-21T04:23:47.860Z,13.60
2019-02-21T04:27:52.747Z,15.10
2019-02-21T04:31:57.667Z,14.73
2019-02-21T04:36:02.565Z,14.53
2019-02-21T04:40:07.903Z,14.33
2019-02-21T04:44:12.842Z,14.93
2019-02-21T04:48:17.755Z,15.97
2019-02-21T04:52:22.728Z,12.77
2019-02-21T04:56:27.672Z,16.17
2019-02-21T05:00:32.584Z,15.47
2019-02-21T05:04:37.486Z,14.27
2019-02-21T05:08:42.555Z,14.00
2019-02-21T05:12:47.427Z,14.70
2019-02-21T05:16:52.325Z,14.17
2019-02-21T05:20:57.310Z,13.50
2019-02-21T05:25:02.224Z,14.80
2019-02-21T05:29:09.063Z,14.87
2019-02-21T05:33:32.845Z,13.97
2019-02-21T05:37:54.631Z,13.80
2019-02-21T05:42:21.233Z,15.10
2019-02-21T05:46:45.017Z,14.40
2019-02-21T05:51:18.088Z,14.97
2019-02-21T05:55:35.140Z,14.87
2019-02-21T06:00:08.046Z,13.57
2019-02-21T06:04:31.800Z,15.57
2019-02-21T06:08:45.537Z,17.60
2019-02-21T06:13:08.554Z,14.47
2019-02-21T06:17:59.012Z,14.57
2019-02-21T06:22:25.601Z,14.87
2019-02-21T06:26:35.596Z,17.60
2019-02-21T06:30:44.390Z,17.27
2019-02-21T06:34:49.239Z,17.47
2019-02-21T06:38:54.265Z,14.30
2019-02-21T06:42:59.692Z,15.13
2019-02-21T06:47:04.686Z,18.00
2019-02-21T06:51:09.797Z,15.90
2019-02-21T06:55:15.078Z,17.00
2019-02-21T06:59:20.519Z,16.47
2019-02-21T07:03:25.474Z,15.80
2019-02-21T07:07:30.344Z,16.40
2019-02-21T07:11:35.468Z,15.73
2019-02-21T07:15:40.510Z,17.10
2019-02-21T07:19:45.440Z,15.20
2019-02-21T07:23:50.367Z,17.00
2019-02-21T07:27:55.347Z,15.10
2019-02-21T07:32:00.248Z,17.07
2019-02-21T07:36:05.220Z,15.53
2019-02-21T07:40:20.039Z,15.90
2019-02-21T07:44:20.021Z,15.57
2019-02-21T07:48:24.973Z,19.97
2019-02-21T07:52:29.952Z,16.07
2019-02-21T07:56:41.947Z,18.13
2019-02-21T08:00:42.886Z,18.17
2019-02-21T08:04:48.548Z,18.77
2019-02-21T08:08:54.149Z,16.27
2019-02-21T08:12:59.086Z,15.53
2019-02-21T08:17:04.875Z,15.63
2019-02-21T08:21:10.020Z,15.83
2019-02-21T08:25:14.958Z,16.20
2019-02-21T08:29:20.810Z,14.93
2019-02-21T08:33:32.772Z,15.40
2019-02-21T08:37:38.015Z,16.50
2019-02-21T08:41:42.945Z,13.87
2019-02-21T08:45:47.906Z,14.83
2019-02-21T08:49:52.881Z,16.37
2019-02-21T08:53:57.734Z,13.33
2019-02-21T08:58:02.702Z,14.77
2019-02-21T09:02:08.091Z,12.60
2019-02-21T09:06:13.046Z,13.53
2019-02-21T09:10:18.436Z,14.53
2019-02-21T09:14:23.528Z,14.47
2019-02-21T09:18:28.450Z,13.53
2019-02-21T09:22:33.403Z,14.57
2019-02-21T09:26:38.506Z,16.00
2019-02-21T09:30:44.462Z,16.90
2019-02-21T09:34:50.351Z,17.77
2019-02-21T09:38:55.345Z,17.20
2019-02-21T09:43:00.327Z,17.70
2019-02-21T09:47:05.736Z,16.13
2019-02-21T09:51:10.759Z,17.03
2019-02-21T09:55:16.656Z,15.80
2019-02-21T09:59:21.661Z,18.00
2019-02-21T10:03:26.697Z,15.63
2019-02-21T10:07:31.566Z,15.60
2019-02-21T10:11:36.552Z,17.50
2019-02-21T10:15:41.540Z,16.50
2019-02-21T10:19:46.516Z,16.57
2019-02-21T10:23:51.659Z,18.20
2019-02-21T10:27:58.898Z,19.17
2019-02-21T10:32:03.163Z,19.10
2019-02-21T10:36:08.354Z,18.93
2019-02-21T10:40:13.877Z,17.50
2019-02-21T10:44:19.118Z,16.20
2019-02-21T10:48:24.031Z,18.33
2019-02-21T10:52:29.135Z,17.83
2019-02-21T10:56:34.110Z,19.30
2019-02-21T11:00:39.033Z,19.80
2019-02-21T11:04:54.139Z,17.80
2019-02-21T11:08:50.584Z,17.80
2019-02-21T11:12:55.521Z,21.83
2019-02-21T11:17:00.428Z,18.70
2019-02-21T11:21:05.564Z,18.10
2019-02-21T11:25:11.126Z,17.03
2019-02-21T11:29:16.084Z,17.17
2019-02-21T11:33:21.019Z,17.97
2019-02-21T11:37:26.001Z,16.27
2019-02-21T11:41:30.926Z,16.43
2019-02-21T11:45:35.978Z,16.83
2019-02-21T11:49:40.862Z,15.10
2019-02-21T11:53:45.850Z,14.80
2019-02-21T11:57:50.862Z,15.53
2019-02-21T12:01:55.831Z,15.70
2019-02-21T12:06:00.710Z,13.37
2019-02-21T12:10:06.182Z,16.67
2019-02-21T12:14:11.234Z,14.27
2019-02-21T12:18:16.613Z,15.47
2019-02-21T12:22:21.568Z,14.27
2019-02-21T12:26:28.582Z,15.57
2019-02-21T12:30:33.631Z,15.50
2019-02-21T12:34:38.665Z,14.60
2019-02-21T12:38:43.605Z,16.50
2019-02-21T12:42:48.528Z,14.33
2019-02-21T12:46:53.413Z,14.40
2019-02-21T12:50:58.462Z,13.70
2019-02-21T12:55:03.345Z,13.00
2019-02-21T12:59:08.332Z,12.20
2019-02-21T13:03:13.367Z,12.67
2019-02-21T13:07:18.532Z,11.57
2019-02-21T13:11:23.662Z,13.57
2019-02-21T13:15:28.601Z,12.73
2019-02-21T13:19:33.546Z,10.53
2019-02-21T13:23:38.459Z,9.97
2019-02-21T13:27:43.587Z,9.77
2019-02-21T13:31:48.481Z,12.20
2019-02-21T13:35:53.481Z,10.30
2019-02-21T13:40:00.504Z,11.70
2019-02-21T13:44:04.998Z,12.40
2019-02-21T13:48:10.040Z,12.10
2019-02-21T13:52:20.443Z,13.47
2019-02-21T13:56:25.583Z,9.93
2019-02-21T14:00:31.582Z,10.53
2019-02-21T14:04:36.913Z,10.57
2019-02-21T14:08:43.267Z,12.73
2019-02-21T14:12:48.452Z,11.80
2019-02-21T14:16:53.746Z,11.60
2019-02-21T14:20:58.829Z,11.83
2019-02-21T14:25:03.751Z,9.80
2019-02-21T14:29:09.868Z,9.30
2019-02-21T14:33:17.413Z,10.47
2019-02-21T14:37:21.654Z,9.00
2019-02-21T14:41:27.849Z,11.13
2019-02-21T14:45:37.329Z,11.00
2019-02-21T14:49:43.693Z,10.67
2019-02-21T14:53:51.399Z,11.90
2019-02-21T14:57:57.598Z,11.30
2019-02-21T15:02:06.084Z,11.70
2019-02-21T15:06:10.830Z,9.83
2019-02-21T15:10:17.476Z,11.00
2019-02-21T15:14:22.457Z,9.33
2019-02-21T15:18:27.355Z,11.00
2019-02-21T15:22:32.719Z,20.43
2019-02-21T15:26:38.476Z,9.47
2019-02-21T15:30:44.067Z,10.30
2019-02-21T15:34:49.408Z,9.70
2019-02-21T15:38:54.998Z,8.70
2019-02-21T15:43:00.528Z,7.10
2019-02-21T15:47:05.581Z,7.60
2019-02-21T15:51:11.330Z,7.70
2019-02-21T15:55:18.549Z,8.43
2019-02-21T15:59:25.745Z,7.13
2019-02-21T16:03:32.506Z,6.83
2019-02-21T16:07:38.729Z,8.17
2019-02-21T16:11:43.719Z,6.67
2019-02-21T16:15:48.844Z,8.60
2019-02-21T16:19:53.744Z,7.70
2019-02-21T16:23:58.665Z,7.63
2019-02-21T16:28:03.664Z,7.00
2019-02-21T16:32:08.682Z,7.97
2019-02-21T16:36:13.614Z,7.00
2019-02-21T16:40:18.856Z,7.93
2019-02-21T16:44:23.979Z,8.60
2019-02-21T16:48:29.194Z,6.53
2019-02-21T16:52:36.677Z,6.50
2019-02-21T16:56:41.056Z,8.73
2019-02-21T17:00:52.728Z,6.60
2019-02-21T17:04:52.540Z,8.10
2019-02-21T17:08:57.540Z,7.80
2019-02-21T17:13:02.753Z,7.00
2019-02-21T17:17:07.973Z,7.90
2019-02-21T17:21:13.130Z,7.57
2019-02-21T17:25:18.331Z,7.83
2019-02-21T17:29:23.663Z,7.50
2019-02-21T17:33:29.826Z,7.47
2019-02-21T17:37:34.719Z,7.23
2019-02-21T17:41:40.405Z,8.40
2019-02-21T17:45:45.590Z,7.93
2019-02-21T17:49:50.826Z,7.20
2019-02-21T17:53:56.072Z,8.00
2019-02-21T17:58:01.100Z,7.97
2019-02-21T18:02:06.267Z,7.50
2019-02-21T18:06:11.158Z,7.40
2019-02-21T18:10:16.186Z,8.13
2019-02-21T18:14:21.144Z,7.13
2019-02-21T18:18:26.162Z,7.10
2019-02-21T18:22:31.034Z,7.77
2019-02-21T18:26:35.994Z,7.73
2019-02-21T18:30:40.975Z,7.80
2019-02-21T18:34:45.871Z,7.20
2019-02-21T18:38:50.802Z,9.63
2019-02-21T18:42:55.986Z,8.30
2019-02-21T18:47:01.593Z,8.67
2019-02-21T18:51:06.492Z,11.77
2019-02-21T18:55:11.709Z,11.07
2019-02-21T18:59:17.058Z,11.83
2019-02-21T19:03:22.487Z,11.23
2019-02-21T19:07:27.731Z,8.27
2019-02-21T19:11:32.874Z,8.53
2019-02-21T19:15:38.082Z,8.97
2019-02-21T19:19:43.305Z,6.03
2019-02-21T19:23:48.455Z,5.17
2019-02-21T19:27:53.836Z,5.53
2019-02-21T19:31:58.823Z,5.40
2019-02-21T19:36:05.175Z,4.23
2019-02-21T19:40:10.287Z,4.03
2019-02-21T19:44:15.385Z,3.77
2019-02-21T19:48:20.322Z,3.17
2019-02-21T19:52:25.358Z,2.97
2019-02-21T19:56:30.681Z,3.37
2019-02-21T20:00:36.360Z,3.00
2019-02-21T20:04:41.482Z,3.13
2019-02-21T20:08:46.597Z,3.10
2019-02-21T20:12:52.319Z,3.20
2019-02-21T20:16:57.582Z,2.97
2019-02-21T20:21:02.559Z,3.43
2019-02-21T20:25:07.921Z,2.47
2019-02-21T20:29:15.089Z,3.30
2019-02-21T20:33:20.299Z,3.93
2019-02-21T20:37:25.282Z,4.53
2019-02-21T20:41:31.605Z,4.70
2019-02-21T20:45:36.728Z,4.20
2019-02-21T20:49:41.621Z,5.40
2019-02-21T20:53:46.684Z,7.13
2019-02-21T20:57:51.586Z,5.30
2019-02-21T21:01:56.691Z,4.07
2019-02-21T21:06:01.611Z,4.40
2019-02-21T21:10:09.380Z,5.33
2019-02-21T21:14:14.285Z,5.07
2019-02-21T21:18:20.349Z,4.90
2019-02-21T21:22:26.658Z,5.93
2019-02-21T21:26:33.340Z,7.13
2019-02-21T21:30:38.517Z,5.43
2019-02-21T21:34:43.433Z,5.47
2019-02-21T21:38:54.099Z,6.30
2019-02-21T21:42:55.126Z,5.87
2019-02-21T21:47:00.017Z,4.80
2019-02-21T21:51:05.294Z,5.57
2019-02-21T21:55:10.359Z,5.00
2019-02-21T21:59:15.237Z,4.80
2019-02-21T22:03:20.353Z,4.40
2019-02-21T22:07:25.327Z,4.80
2019-02-21T22:11:30.563Z,5.60
2019-02-21T22:15:37.173Z,5.30
2019-02-21T22:19:42.056Z,7.20
2019-02-21T22:23:47.020Z,7.30
2019-02-21T22:27:52.042Z,6.53
2019-02-21T22:31:57.058Z,7.50
2019-02-21T22:36:02.022Z,7.80
2019-02-21T22:40:08.234Z,6.30
2019-02-21T22:44:13.602Z,7.17
2019-02-21T22:48:18.530Z,7.00
2019-02-21T22:52:23.618Z,8.30
2019-02-21T22:56:28.500Z,7.73
2019-02-21T23:01:20.264Z,8.47
2019-02-21T23:05:53.777Z,7.60
2019-02-21T23:09:58.726Z,5.87
2019-02-21T23:14:03.870Z,7.00
2019-02-21T23:18:09.102Z,6.17
2019-02-21T23:22:13.995Z,7.50
2019-02-21T23:26:19.036Z,6.87
2019-02-21T23:30:24.035Z,6.80
2019-02-21T23:34:47.857Z,6.20
2019-02-21T23:38:52.730Z,5.20
2019-02-21T23:42:58.026Z,6.00
2019-02-21T23:47:02.918Z,4.43
2019-02-21T23:51:07.844Z,6.53
2019-02-21T23:55:12.743Z,5.03
2019-02-21T23:59:17.667Z,4.60
